Astatula, FL

8:17 AM EDT on July 04, 2015 (GMT -0400)
Astatula, FL | | Change Station
CLOSE
Current Station
Personal Weather Station
Location: Astatula, FL
Elevation: 124 ft
Nearby Weather Stations

Elev 124 ft 28.68 °N, 81.74 °W | Updated 11 seconds ago

Clear
Clear
71.3 °F
Feels Like 71.3 °F
N
0.0
Wind Variable Wind from West
Gusts 1.0 mph

Today
High -- | Low -- °F
--% Chance of Precip.
Yesterday
High -- | Low -- °F
Precip. -- in
6:33 AM 8:28 PM
Waning Gibbous, 92% visible
Pressure 30.13 in
Visibility 10.0 miles
Clouds Clear
Dew Point 71 °F
Humidity 98%
Rainfall 0.00 in
Snow Depth Not available.
UV 1 out of 12
Pollen 2.90 out of 12
Air Quality Not available.
Flu Activity Not available.
METAR KLEE 041153Z 00000KT 10SM CLR 25/22 A3014 RMK AO2 SLP203 T02500217 10250 20222 51014

More Conditions Fewer Conditions

Pressure 30.13 in
Visibility 10.0 miles
Clouds Clear
Dew Point 71 °F
Humidity 98%
Rainfall 0.00 in
Snow Depth Not available.
UV 1 out of 12
Pollen 2.90 out of 12
Air Quality Not available.
Flu Activity Not available.
METAR KLEE 041153Z 00000KT 10SM CLR 25/22 A3014 RMK AO2 SLP203 T02500217 10250 20222 51014

More Conditions Fewer Conditions

Nowcast | as of 6:30 am EDT on July 4, 2015

Scattered afternoon showers and storms near the coast...becoming numerous during the late afternoon and early evening inland Shower and thunderstorm activity is expected to be greater in coverage today than Friday as the East Coast sea breeze forms and gradually pushes inland during the afternoon and early evening. Storm coverage and intensity is expected to be a little higher over the interior counties...with strong wind gusts of 50 to 60 mph...frequent lightning...torrential rainfall...and hail possible in the stronger storms. Whether you plan on attending any of the numerous outdoor public events planned for this afternoon and evening...or have your own outdoor activities or festivities planned...be especially weather aware today as rain chances are 50 to 60 percent. Seek safe shelter indoors if skies begin to look threatening...or if you hear thunder. Additional details...including graphics are available online at: http://www.Srh.NOAA.Gov/mlb/blog.Php

×

10-Day Weather Forecast

×

Almanac

Astronomy

Jul. 04, 2015 Rise Set
Actual Time
Civil Twilight
Nautical Twilight
Astronomical Twilight
Moon
Length of Visible Light
Length of Day
Tomorrow will be .
, % of the Moon is Illuminated

Today's Extremes

State Highs State Lows

Community

WunderPhotos

Upload Photos

1,834,946 photos uploaded!

WunderBlogs® & News

Nearby

Air Quality

  Air Quality AQ Index Pollutant
Not available.

Snow Depth

Station Depth Elevation

Earthquake Activity

City Distance Mag. Time & Date
Minimum magnitude displayed is 2.5.

Coastal Water Temperatures

Place Temperature

Stations

Nearby Weather Stations

Station Location Temp. Windchill Dew Point Humidity Wind Precip. Elev Updated Type